createdAt,value
2018-05-03T00:00:59.746Z,68.10
2018-05-03T00:03:30.103Z,68.40
2018-05-03T00:05:59.209Z,68.40
2018-05-03T00:08:27.884Z,67.80
2018-05-03T00:10:56.741Z,65.70
2018-05-03T00:13:25.481Z,64.20
2018-05-03T00:15:54.208Z,63.80
2018-05-03T00:18:23.023Z,63.20
2018-05-03T00:20:51.722Z,64.50
2018-05-03T00:23:21.148Z,66.20
2018-05-03T00:25:49.911Z,65.50
2018-05-03T00:28:18.650Z,67.00
2018-05-03T00:30:47.378Z,69.50
2018-05-03T00:33:17.676Z,72.70
2018-05-03T00:35:46.429Z,72.70
2018-05-03T00:38:15.987Z,72.20
2018-05-03T00:40:46.169Z,67.60
2018-05-03T00:43:16.282Z,66.10
2018-05-03T00:45:45.876Z,66.00
2018-05-03T00:48:15.424Z,65.80
2018-05-03T00:50:46.017Z,65.60
2018-05-03T00:53:15.831Z,66.60
2018-05-03T00:55:46.132Z,69.40
2018-05-03T00:58:15.616Z,69.30
2018-05-03T01:00:45.777Z,68.80
2018-05-03T01:03:15.802Z,68.80
2018-05-03T01:05:45.646Z,68.20
2018-05-03T01:08:14.880Z,68.60
2018-05-03T01:10:45.069Z,69.00
2018-05-03T01:13:15.048Z,69.30
2018-05-03T01:15:43.976Z,68.10
2018-05-03T01:18:13.457Z,68.40
2018-05-03T01:20:42.636Z,68.30
2018-05-03T01:23:12.166Z,68.70
2018-05-03T01:25:40.925Z,69.10
2018-05-03T01:28:09.720Z,69.60
2018-05-03T01:30:38.443Z,70.10
2018-05-03T01:33:07.940Z,70.60
2018-05-03T01:35:48.927Z,70.70
2018-05-03T01:38:18.441Z,69.30
2018-05-03T01:40:47.666Z,69.30
2018-05-03T01:43:16.440Z,68.00
2018-05-03T01:45:45.857Z,66.50
2018-05-03T01:48:16.103Z,67.50
2018-05-03T01:50:45.388Z,67.50
2018-05-03T01:53:14.172Z,68.20
2018-05-03T01:55:42.907Z,67.90
2018-05-03T01:58:12.547Z,67.10
2018-05-03T02:00:41.991Z,67.20
2018-05-03T02:03:10.772Z,66.30
2018-05-03T02:05:39.494Z,65.10
2018-05-03T02:08:09.575Z,66.40
2018-05-03T02:10:39.154Z,65.10
2018-05-03T02:13:08.108Z,64.40
2018-05-03T02:15:37.126Z,64.20
2018-05-03T02:18:05.980Z,64.80
2018-05-03T02:20:35.488Z,63.60
2018-05-03T02:23:04.236Z,63.60
2018-05-03T02:25:33.497Z,64.50
2018-05-03T02:28:02.212Z,63.90
2018-05-03T02:30:30.956Z,63.80
2018-05-03T02:33:00.327Z,63.80
2018-05-03T02:35:29.510Z,62.80
2018-05-03T02:37:58.235Z,63.30
2018-05-03T02:40:27.063Z,62.90
2018-05-03T02:42:55.807Z,62.50
2018-05-03T02:45:25.303Z,64.00
2018-05-03T02:47:55.377Z,63.80
2018-05-03T02:50:24.766Z,63.70
2018-05-03T02:52:53.501Z,63.30
2018-05-03T02:55:22.506Z,63.50
2018-05-03T02:58:09.539Z,63.40
2018-05-03T03:00:56.041Z,62.90
2018-05-03T03:03:42.176Z,62.80
2018-05-03T03:06:28.346Z,62.90
2018-05-03T03:23:06.297Z,62.90
2018-05-03T03:26:07.262Z,63.10
2018-05-03T03:28:53.380Z,65.10
2018-05-03T03:31:39.541Z,66.40
2018-05-03T03:34:20.193Z,65.90
2018-05-03T03:37:26.473Z,65.00
2018-05-03T03:40:12.708Z,63.90
2018-05-03T03:56:19.437Z,64.80
2018-05-03T03:58:48.172Z,63.90
2018-05-03T04:01:16.942Z,63.10
2018-05-03T04:03:45.925Z,62.70
2018-05-03T04:06:14.595Z,62.10
2018-05-03T04:08:44.112Z,61.90
2018-05-03T04:11:12.981Z,61.90
2018-05-03T04:13:41.689Z,62.50
2018-05-03T04:16:10.455Z,64.00
2018-05-03T04:18:51.676Z,67.20
2018-05-03T04:21:32.067Z,67.20
2018-05-03T04:37:30.268Z,62.70
2018-05-03T04:39:59.020Z,64.10
2018-05-03T04:42:27.752Z,64.00
2018-05-03T04:44:56.510Z,63.70
2018-05-03T04:47:26.047Z,60.70
2018-05-03T04:49:54.799Z,60.70
2018-05-03T04:52:23.525Z,61.30
2018-05-03T04:54:52.288Z,62.40
2018-05-03T04:57:21.068Z,62.70
2018-05-03T04:59:50.600Z,62.50
2018-05-03T05:02:19.464Z,62.50
2018-05-03T05:04:48.258Z,61.50
2018-05-03T05:07:16.977Z,61.10
2018-05-03T05:09:45.724Z,59.70
2018-05-03T05:12:14.576Z,59.70
2018-05-03T05:14:43.328Z,59.80
2018-05-03T05:17:12.068Z,59.70
2018-05-03T05:19:40.802Z,59.50
2018-05-03T05:22:09.565Z,59.20
2018-05-03T05:24:38.303Z,59.80
2018-05-03T05:27:07.078Z,61.30
2018-05-03T05:29:35.895Z,62.10
2018-05-03T05:32:04.913Z,60.90
2018-05-03T05:34:33.653Z,61.30
2018-05-03T05:37:03.564Z,62.60
2018-05-03T05:39:32.297Z,62.20
2018-05-03T05:42:01.081Z,62.30
2018-05-03T05:44:29.869Z,61.50
2018-05-03T05:46:58.613Z,60.20
2018-05-03T05:49:27.344Z,60.80
2018-05-03T05:51:56.124Z,61.00
2018-05-03T05:54:24.860Z,59.80
2018-05-03T05:56:53.616Z,60.90
2018-05-03T05:59:22.406Z,62.10
2018-05-03T06:01:51.141Z,60.70
2018-05-03T06:04:20.328Z,59.50
2018-05-03T06:06:49.032Z,59.30
2018-05-03T06:09:17.828Z,59.70
2018-05-03T06:11:46.556Z,59.20
2018-05-03T06:14:15.324Z,58.30
2018-05-03T06:16:44.093Z,58.00
2018-05-03T06:19:12.850Z,58.50
2018-05-03T06:21:42.422Z,58.10
2018-05-03T06:24:11.296Z,58.00
2018-05-03T06:26:40.037Z,58.10
2018-05-03T06:29:08.829Z,60.10
2018-05-03T06:31:37.616Z,60.00
2018-05-03T06:34:06.419Z,58.10
2018-05-03T06:36:35.184Z,57.50
2018-05-03T06:39:04.381Z,58.50
2018-05-03T06:41:33.100Z,59.30
2018-05-03T06:44:01.880Z,59.10
2018-05-03T06:46:31.501Z,60.10
2018-05-03T06:49:01.025Z,60.90
2018-05-03T06:51:30.536Z,61.00
2018-05-03T06:53:59.253Z,61.70
2018-05-03T06:56:28.960Z,60.30
2018-05-03T06:58:58.683Z,59.90
2018-05-03T07:01:27.439Z,60.90
2018-05-03T07:03:56.216Z,60.20
2018-05-03T07:06:24.972Z,59.80
2018-05-03T07:08:53.761Z,59.20
2018-05-03T07:11:23.265Z,58.50
2018-05-03T07:13:52.806Z,57.60
2018-05-03T07:16:21.642Z,57.60
2018-05-03T07:18:50.323Z,57.60
2018-05-03T07:21:19.197Z,57.90
2018-05-03T07:23:47.972Z,57.80
2018-05-03T07:26:16.743Z,56.70
2018-05-03T07:28:45.538Z,57.70
2018-05-03T07:31:15.121Z,56.90
2018-05-03T07:33:44.023Z,56.90
2018-05-03T07:36:12.772Z,57.50
2018-05-03T07:38:41.595Z,57.30
2018-05-03T07:41:10.329Z,55.80
2018-05-03T07:43:39.065Z,55.70
2018-05-03T07:46:07.830Z,56.20
2018-05-03T07:48:36.690Z,57.00
2018-05-03T07:51:06.664Z,55.70
2018-05-03T07:53:35.888Z,55.80
2018-05-03T07:56:04.685Z,55.90
2018-05-03T07:58:33.493Z,55.40
2018-05-03T08:01:02.467Z,54.90
2018-05-03T08:03:31.528Z,54.50
2018-05-03T08:06:01.057Z,55.00
2018-05-03T08:08:29.805Z,55.00
2018-05-03T08:10:59.335Z,54.00
2018-05-03T08:13:28.063Z,54.00
2018-05-03T08:15:56.951Z,54.50
2018-05-03T08:18:25.704Z,53.90
2018-05-03T08:20:54.437Z,53.80
2018-05-03T08:23:23.297Z,53.30
2018-05-03T08:25:52.084Z,54.20
2018-05-03T08:28:20.824Z,52.40
2018-05-03T08:30:49.576Z,51.60
2018-05-03T08:33:18.309Z,53.20
2018-05-03T08:35:47.095Z,52.80
2018-05-03T08:38:16.637Z,50.80
2018-05-03T08:40:45.417Z,51.10
2018-05-03T08:43:14.196Z,51.60
2018-05-03T08:45:43.701Z,50.90
2018-05-03T08:48:13.311Z,51.10
2018-05-03T08:50:42.099Z,51.10
2018-05-03T08:53:10.816Z,49.20
2018-05-03T08:55:39.655Z,49.90
2018-05-03T08:58:08.361Z,48.60
2018-05-03T09:00:37.870Z,48.90
2018-05-03T09:03:07.434Z,49.10
2018-05-03T09:05:36.529Z,49.10
2018-05-03T09:08:06.716Z,49.20
2018-05-03T09:10:36.501Z,48.90
2018-05-03T09:13:07.100Z,49.00
2018-05-03T09:15:36.701Z,49.00
2018-05-03T09:18:06.521Z,48.30
2018-05-03T09:20:35.329Z,47.50
2018-05-03T09:23:04.094Z,47.70
2018-05-03T09:25:32.852Z,47.70
2018-05-03T09:28:01.700Z,46.60
2018-05-03T09:30:30.568Z,46.30
2018-05-03T09:32:59.310Z,47.20
2018-05-03T09:35:28.084Z,47.70
2018-05-03T09:37:57.084Z,46.00
2018-05-03T09:40:25.851Z,47.00
2018-05-03T09:42:54.592Z,47.10
2018-05-03T09:45:23.347Z,47.10
2018-05-03T09:47:52.114Z,46.70
2018-05-03T09:50:21.158Z,46.70
2018-05-03T09:52:49.969Z,45.90
2018-05-03T09:55:18.757Z,46.20
2018-05-03T09:57:47.545Z,46.20
2018-05-03T10:00:16.401Z,47.40
2018-05-03T10:02:45.139Z,45.50
2018-05-03T10:05:14.019Z,44.00
2018-05-03T10:07:42.804Z,45.20
2018-05-03T10:10:11.592Z,46.00
2018-05-03T10:12:40.346Z,46.10
2018-05-03T10:15:09.378Z,46.20
2018-05-03T10:17:38.121Z,45.40
2018-05-03T10:20:07.060Z,45.00
2018-05-03T10:22:36.876Z,45.20
2018-05-03T10:25:05.588Z,45.70
2018-05-03T10:27:35.099Z,43.40
2018-05-03T10:30:04.010Z,43.30
2018-05-03T10:32:32.746Z,42.90
2018-05-03T10:35:01.484Z,43.10
2018-05-03T10:37:30.294Z,41.00
2018-05-03T10:39:59.033Z,41.70
2018-05-03T10:42:27.784Z,42.80
2018-05-03T10:44:56.579Z,42.40
2018-05-03T10:47:50.622Z,41.60
2018-05-03T10:50:19.359Z,41.10
2018-05-03T10:52:48.177Z,41.60
2018-05-03T10:55:16.930Z,41.50
2018-05-03T10:57:46.787Z,41.10
2018-05-03T11:00:15.610Z,42.00
2018-05-03T11:02:44.338Z,39.20
2018-05-03T11:05:13.127Z,39.80
2018-05-03T11:07:41.869Z,40.20
2018-05-03T11:10:10.589Z,38.90
2018-05-03T11:12:39.353Z,39.70
2018-05-03T11:15:08.188Z,39.10
2018-05-03T11:17:36.975Z,39.40
2018-05-03T11:20:05.747Z,40.70
2018-05-03T11:22:34.549Z,40.80
2018-05-03T11:25:03.408Z,39.70
2018-05-03T11:27:32.200Z,39.00
2018-05-03T11:30:00.969Z,38.80
2018-05-03T11:32:30.790Z,40.00
2018-05-03T11:35:00.350Z,39.70
2018-05-03T11:37:30.527Z,39.80
2018-05-03T11:40:00.396Z,40.10
2018-05-03T11:42:30.094Z,40.10
2018-05-03T11:45:00.133Z,40.30
2018-05-03T11:47:29.603Z,40.70
2018-05-03T11:49:58.347Z,41.90
2018-05-03T11:52:27.995Z,40.50
2018-05-03T11:54:57.365Z,40.50
2018-05-03T11:57:27.988Z,41.40
2018-05-03T11:59:56.760Z,42.60
2018-05-03T12:02:25.509Z,39.10
2018-05-03T12:04:55.570Z,40.70
2018-05-03T12:07:25.624Z,39.20
2018-05-03T12:09:55.086Z,39.30
2018-05-03T12:12:23.995Z,38.40
2018-05-03T12:14:53.024Z,40.00
2018-05-03T12:17:21.802Z,36.80
2018-05-03T12:19:51.286Z,38.00
2018-05-03T12:22:20.061Z,38.30
2018-05-03T12:24:48.847Z,39.00
2018-05-03T12:27:18.181Z,37.60
2018-05-03T12:29:48.033Z,37.80
2018-05-03T12:32:16.806Z,37.90
2018-05-03T12:34:45.645Z,39.50
2018-05-03T12:37:14.332Z,39.90
2018-05-03T12:39:43.229Z,40.00
2018-05-03T12:42:12.742Z,39.40
2018-05-03T12:44:41.498Z,39.50
2018-05-03T12:47:12.030Z,39.60
2018-05-03T12:49:40.908Z,36.90
2018-05-03T12:52:09.867Z,39.10
2018-05-03T12:54:38.689Z,40.30
2018-05-03T12:57:07.437Z,39.90
2018-05-03T12:59:37.263Z,39.10
2018-05-03T13:02:05.989Z,38.90
2018-05-03T13:04:34.779Z,38.50
2018-05-03T13:07:03.521Z,38.70
2018-05-03T13:09:32.267Z,38.40
2018-05-03T13:12:01.796Z,38.50
2018-05-03T13:14:30.669Z,37.10
2018-05-03T13:16:59.441Z,38.50
2018-05-03T13:19:28.305Z,39.80
2018-05-03T13:21:58.514Z,38.90
2018-05-03T13:24:27.849Z,39.10
2018-05-03T13:26:56.901Z,39.50
2018-05-03T13:29:26.791Z,40.10
2018-05-03T13:31:55.580Z,39.80
2018-05-03T13:34:25.325Z,37.80
2018-05-03T13:36:54.141Z,37.70
2018-05-03T13:39:23.054Z,39.80
2018-05-03T13:41:51.810Z,39.90
2018-05-03T13:44:20.607Z,39.30
2018-05-03T13:46:49.435Z,38.30
2018-05-03T13:49:19.301Z,38.40
2018-05-03T13:51:49.108Z,40.10
2018-05-03T13:54:17.883Z,40.00
2018-05-03T13:56:47.395Z,41.10
2018-05-03T13:59:16.182Z,41.10
2018-05-03T14:01:44.922Z,44.60
2018-05-03T14:04:13.652Z,44.40
2018-05-03T14:06:42.405Z,41.80
2018-05-03T14:09:11.147Z,42.80
2018-05-03T14:11:39.936Z,42.70
2018-05-03T14:14:09.341Z,42.70
2018-05-03T14:16:38.161Z,43.80
2018-05-03T14:19:06.986Z,42.60
2018-05-03T14:21:36.537Z,42.40
2018-05-03T14:24:05.323Z,42.30
2018-05-03T14:26:34.216Z,42.00
2018-05-03T14:29:03.051Z,40.90
2018-05-03T14:31:32.588Z,41.00
2018-05-03T14:34:01.355Z,41.00
2018-05-03T14:36:30.106Z,42.00
2018-05-03T14:39:00.493Z,42.90
2018-05-03T14:41:29.264Z,42.20
2018-05-03T14:43:58.019Z,42.30
2018-05-03T14:46:26.799Z,42.70
2018-05-03T14:48:55.571Z,42.00
2018-05-03T14:51:24.362Z,42.10
2018-05-03T14:53:53.737Z,41.20
2018-05-03T14:56:22.512Z,41.60
2018-05-03T14:58:52.001Z,41.30
2018-05-03T15:01:21.521Z,41.60
2018-05-03T15:03:50.274Z,41.60
2018-05-03T15:06:20.504Z,41.10
2018-05-03T15:08:49.870Z,41.10
2018-05-03T15:11:19.770Z,41.30
2018-05-03T15:13:48.556Z,42.10
2018-05-03T15:16:17.361Z,42.10
2018-05-03T15:18:46.120Z,42.60
2018-05-03T15:21:16.090Z,43.20
2018-05-03T15:23:44.829Z,43.10
2018-05-03T15:26:13.636Z,43.10
2018-05-03T15:28:42.455Z,43.30
2018-05-03T15:31:11.181Z,43.30
2018-05-03T15:33:40.794Z,43.80
2018-05-03T15:36:09.440Z,43.20
2018-05-03T15:38:38.219Z,43.30
2018-05-03T15:41:06.999Z,44.30
2018-05-03T15:43:35.781Z,44.10
2018-05-03T15:46:04.762Z,44.40
2018-05-03T15:48:34.298Z,44.30
2018-05-03T15:51:03.303Z,44.30
2018-05-03T15:53:32.048Z,44.20
2018-05-03T15:56:00.818Z,43.80
2018-05-03T15:58:30.380Z,44.20
2018-05-03T16:01:00.851Z,43.40
2018-05-03T16:03:30.456Z,43.70
2018-05-03T16:06:01.331Z,44.00
2018-05-03T16:08:31.027Z,44.00
2018-05-03T16:11:00.656Z,43.80
2018-05-03T16:13:29.508Z,43.20
2018-05-03T16:15:59.668Z,43.30
2018-05-03T16:18:30.884Z,43.20
2018-05-03T16:21:00.752Z,44.00
2018-05-03T16:23:30.533Z,44.50
2018-05-03T16:26:00.009Z,44.50
2018-05-03T16:28:28.776Z,44.60
2018-05-03T16:30:57.554Z,44.40
2018-05-03T16:33:26.656Z,44.90
2018-05-03T16:35:56.190Z,45.40
2018-05-03T16:38:25.033Z,44.30
2018-05-03T16:40:54.440Z,44.50
2018-05-03T16:43:23.219Z,44.40
2018-05-03T16:45:53.838Z,45.80
2018-05-03T16:48:23.041Z,45.80
2018-05-03T16:50:52.708Z,45.80
2018-05-03T16:53:22.654Z,45.80
2018-05-03T16:55:51.388Z,45.70
2018-05-03T16:58:20.570Z,45.10
2018-05-03T17:00:49.603Z,45.80
2018-05-03T17:03:19.207Z,45.50
2018-05-03T17:05:49.439Z,45.40
2018-05-03T17:08:20.425Z,46.70
2018-05-03T17:10:49.174Z,47.40
2018-05-03T17:13:20.634Z,47.30
2018-05-03T17:15:49.974Z,47.20
2018-05-03T17:18:19.159Z,47.20
2018-05-03T17:20:48.965Z,47.20
2018-05-03T17:23:18.363Z,47.70
2018-05-03T17:25:47.108Z,48.00
2018-05-03T17:28:16.888Z,47.80
2018-05-03T17:30:45.844Z,47.80
2018-05-03T17:33:15.350Z,47.70
2018-05-03T17:35:44.181Z,47.70
2018-05-03T17:38:13.029Z,47.80
2018-05-03T17:40:41.809Z,48.50
2018-05-03T17:43:10.605Z,48.60
2018-05-03T17:45:39.391Z,48.60
2018-05-03T17:48:08.943Z,48.60
2018-05-03T17:50:37.707Z,48.60
2018-05-03T17:53:06.446Z,48.80
2018-05-03T17:55:35.231Z,49.70
2018-05-03T17:58:04.031Z,50.00
2018-05-03T18:00:32.770Z,49.50
2018-05-03T18:03:01.560Z,49.20
2018-05-03T18:05:30.315Z,49.10
2018-05-03T18:07:59.168Z,49.00
2018-05-03T18:10:27.917Z,49.00
2018-05-03T18:12:56.969Z,49.40
2018-05-03T18:15:25.706Z,49.80
2018-05-03T18:17:54.435Z,49.60
2018-05-03T18:20:23.242Z,49.80
2018-05-03T18:22:52.025Z,49.40
2018-05-03T18:25:21.152Z,49.60
2018-05-03T18:27:51.815Z,49.70
2018-05-03T18:30:21.148Z,49.70
2018-05-03T18:32:49.935Z,49.60
2018-05-03T18:35:18.694Z,49.60
2018-05-03T18:37:47.458Z,50.00
2018-05-03T18:40:16.433Z,50.00
2018-05-03T18:42:45.197Z,49.80
2018-05-03T18:45:13.964Z,49.80
2018-05-03T18:47:42.797Z,50.50
2018-05-03T18:50:11.648Z,50.80
2018-05-03T18:52:40.498Z,51.00
2018-05-03T18:55:10.101Z,51.50
2018-05-03T18:57:38.976Z,51.50
2018-05-03T19:00:07.768Z,52.00
2018-05-03T19:02:37.351Z,51.30
2018-05-03T19:05:06.274Z,51.20
2018-05-03T19:07:35.194Z,51.10
2018-05-03T19:10:04.001Z,51.20
2018-05-03T19:12:32.873Z,52.10
2018-05-03T19:15:02.392Z,52.70
2018-05-03T19:17:31.169Z,52.60
2018-05-03T19:19:59.977Z,53.10
2018-05-03T19:22:28.734Z,53.00
2018-05-03T19:24:57.503Z,53.00
2018-05-03T19:27:27.841Z,53.90
2018-05-03T19:32:56.789Z,53.20
2018-05-03T19:35:25.635Z,54.20
2018-05-03T19:37:54.443Z,54.10
2018-05-03T19:40:23.223Z,54.40
2018-05-03T19:42:52.784Z,54.60
2018-05-03T19:45:21.660Z,54.60
2018-05-03T19:47:50.535Z,54.70
2018-05-03T19:50:19.316Z,54.80
2018-05-03T19:52:48.698Z,54.70
2018-05-03T19:55:18.305Z,56.40
2018-05-03T19:57:47.030Z,56.40
2018-05-03T20:00:15.801Z,56.20
2018-05-03T20:02:44.580Z,55.70
2018-05-03T20:05:13.501Z,55.70
2018-05-03T20:07:42.274Z,56.20
2018-05-03T20:10:11.051Z,55.80
2018-05-03T20:12:40.744Z,55.50
2018-05-03T20:15:09.586Z,55.60
2018-05-03T20:17:38.276Z,56.40
2018-05-03T20:20:08.567Z,57.70
2018-05-03T20:22:37.395Z,56.50
2018-05-03T20:25:06.192Z,56.40
2018-05-03T20:27:34.945Z,57.10
2018-05-03T20:30:03.696Z,56.90
2018-05-03T20:32:32.526Z,57.20
2018-05-03T20:35:01.284Z,57.80
2018-05-03T20:37:31.285Z,58.60
2018-05-03T20:40:00.861Z,58.30
2018-05-03T20:42:30.440Z,58.60
2018-05-03T20:44:59.278Z,58.60
2018-05-03T20:47:28.517Z,58.40
2018-05-03T20:49:57.318Z,58.10
2018-05-03T20:52:26.102Z,57.90
2018-05-03T20:54:54.972Z,57.40
2018-05-03T20:57:23.778Z,57.70
2018-05-03T20:59:52.532Z,57.50
2018-05-03T21:02:22.357Z,57.90
2018-05-03T21:04:52.941Z,58.90
2018-05-03T21:07:22.319Z,58.90
2018-05-03T21:09:51.053Z,60.10
2018-05-03T21:12:20.660Z,59.50
2018-05-03T21:14:49.510Z,58.80
2018-05-03T21:17:18.259Z,59.60
2018-05-03T21:19:47.086Z,58.70
2018-05-03T21:22:15.809Z,58.00
2018-05-03T21:24:44.545Z,57.80
2018-05-03T21:27:13.321Z,57.50
2018-05-03T21:29:42.851Z,57.80
2018-05-03T21:32:11.597Z,57.60
2018-05-03T21:34:40.450Z,57.30
2018-05-03T21:37:09.352Z,57.40
2018-05-03T21:39:38.401Z,57.60
2018-05-03T21:42:07.970Z,56.80
2018-05-03T21:44:36.757Z,56.80
2018-05-03T21:47:05.536Z,56.60
2018-05-03T21:49:34.641Z,57.60
2018-05-03T21:52:03.426Z,56.80
2018-05-03T21:54:32.164Z,57.50
2018-05-03T21:57:01.674Z,57.30
2018-05-03T21:59:30.683Z,57.30
2018-05-03T22:01:59.434Z,57.60
2018-05-03T22:04:28.213Z,58.30
2018-05-03T22:06:56.976Z,58.00
2018-05-03T22:09:25.754Z,58.60
2018-05-03T22:11:54.478Z,57.90
2018-05-03T22:14:23.297Z,58.90
2018-05-03T22:16:53.757Z,58.20
2018-05-03T22:19:22.872Z,59.00
2018-05-03T22:21:51.661Z,58.20
2018-05-03T22:24:22.903Z,57.50
2018-05-03T22:26:51.757Z,57.50
2018-05-03T22:29:20.531Z,57.60
2018-05-03T22:31:49.305Z,57.90
2018-05-03T22:34:18.042Z,58.10
2018-05-03T22:36:47.579Z,57.50
2018-05-03T22:39:16.368Z,57.50
2018-05-03T22:41:45.144Z,58.10
2018-05-03T22:44:14.620Z,58.20
2018-05-03T22:46:44.710Z,57.90
2018-05-03T22:49:14.919Z,58.30
2018-05-03T22:51:45.024Z,58.30
2018-05-03T22:54:14.073Z,58.50
2018-05-03T22:56:42.849Z,59.10
2018-05-03T22:59:12.388Z,59.10
2018-05-03T23:01:41.153Z,59.00
2018-05-03T23:04:09.912Z,58.50
2018-05-03T23:06:38.673Z,58.70
2018-05-03T23:09:07.441Z,58.80
2018-05-03T23:11:36.964Z,59.20
2018-05-03T23:14:05.718Z,59.60
2018-05-03T23:16:35.000Z,58.90
2018-05-03T23:19:03.744Z,59.90
2018-05-03T23:21:32.541Z,59.60
2018-05-03T23:24:01.282Z,60.30
2018-05-03T23:26:30.314Z,59.40
2018-05-03T23:28:59.061Z,59.10
2018-05-03T23:31:27.832Z,58.80
2018-05-03T23:33:56.600Z,58.60
2018-05-03T23:36:25.373Z,58.40
2018-05-03T23:38:54.140Z,58.50
2018-05-03T23:41:24.054Z,58.80
2018-05-03T23:43:53.603Z,59.50
2018-05-03T23:46:25.857Z,59.80
2018-05-03T23:48:54.633Z,59.60
2018-05-03T23:51:23.665Z,59.70
2018-05-03T23:53:52.430Z,59.50
2018-05-03T23:56:22.301Z,59.10
2018-05-03T23:58:51.087Z,60.40
